sensor_id;sensor_type;location;lat;lon;timestamp;pressure;altitude;pressure_sealevel;temperature;humidity
72414;BME280;60995;52.154;4.498;2023-01-01T00:01:28;100547.31;;;15.23;63.09
72414;BME280;60995;52.154;4.498;2023-01-01T00:03:47;100549.66;;;15.34;62.58
72414;BME280;60995;52.154;4.498;2023-01-01T00:06:13;100545.56;;;15.30;62.39
72414;BME280;60995;52.154;4.498;2023-01-01T00:08:29;100538.81;;;15.10;62.74
72414;BME280;60995;52.154;4.498;2023-01-01T00:10:45;100539.75;;;15.25;62.83
72414;BME280;60995;52.154;4.498;2023-01-01T00:13:01;100524.88;;;15.28;62.85
72414;BME280;60995;52.154;4.498;2023-01-01T00:15:18;100545.91;;;15.27;63.03
72414;BME280;60995;52.154;4.498;2023-01-01T00:17:34;100545.75;;;15.29;62.63
72414;BME280;60995;52.154;4.498;2023-01-01T00:19:50;100546.56;;;15.37;62.82
72414;BME280;60995;52.154;4.498;2023-01-01T00:22:06;100544.50;;;15.39;62.82
72414;BME280;60995;52.154;4.498;2023-01-01T00:24:22;100552.06;;;15.29;62.93
72414;BME280;60995;52.154;4.498;2023-01-01T00:26:38;100562.34;;;15.19;63.38
72414;BME280;60995;52.154;4.498;2023-01-01T00:28:54;100530.44;;;15.03;63.49
72414;BME280;60995;52.154;4.498;2023-01-01T00:31:14;100526.50;;;15.14;63.54
72414;BME280;60995;52.154;4.498;2023-01-01T00:33:32;100531.97;;;15.14;63.53
72414;BME280;60995;52.154;4.498;2023-01-01T00:35:48;100508.41;;;14.96;64.03
72414;BME280;60995;52.154;4.498;2023-01-01T00:38:04;100518.63;;;15.19;63.79
72414;BME280;60995;52.154;4.498;2023-01-01T00:40:21;100539.75;;;15.25;63.42
72414;BME280;60995;52.154;4.498;2023-01-01T00:42:38;100521.50;;;15.17;63.44
72414;BME280;60995;52.154;4.498;2023-01-01T00:44:56;100501.91;;;15.05;63.51
72414;BME280;60995;52.154;4.498;2023-01-01T00:47:12;100533.50;;;15.16;63.51
72414;BME280;60995;52.154;4.498;2023-01-01T00:49:28;100517.28;;;15.15;63.42
72414;BME280;60995;52.154;4.498;2023-01-01T00:51:44;100527.84;;;15.18;63.38
72414;BME280;60995;52.154;4.498;2023-01-01T00:54:00;100526.41;;;15.30;62.88
72414;BME280;60995;52.154;4.498;2023-01-01T00:56:16;100530.53;;;15.34;62.98
72414;BME280;60995;52.154;4.498;2023-01-01T00:58:32;100562.69;;;15.16;63.12
72414;BME280;60995;52.154;4.498;2023-01-01T01:00:48;100562.69;;;15.24;62.61
72414;BME280;60995;52.154;4.498;2023-01-01T01:03:06;100563.88;;;15.13;62.93
72414;BME280;60995;52.154;4.498;2023-01-01T01:05:23;100564.34;;;15.25;62.68
72414;BME280;60995;52.154;4.498;2023-01-01T01:07:39;100575.28;;;15.33;62.50
72414;BME280;60995;52.154;4.498;2023-01-01T01:09:55;100566.06;;;15.26;62.53
72414;BME280;60995;52.154;4.498;2023-01-01T01:12:11;100558.75;;;15.27;62.25
72414;BME280;60995;52.154;4.498;2023-01-01T01:14:27;100566.09;;;15.18;62.27
72414;BME280;60995;52.154;4.498;2023-01-01T01:16:43;100559.06;;;15.24;61.74
72414;BME280;60995;52.154;4.498;2023-01-01T01:19:00;100557.53;;;15.29;61.53
72414;BME280;60995;52.154;4.498;2023-01-01T01:21:18;100562.50;;;15.17;62.39
72414;BME280;60995;52.154;4.498;2023-01-01T01:23:36;100568.47;;;15.29;61.35
72414;BME280;60995;52.154;4.498;2023-01-01T01:25:52;100559.94;;;15.24;61.94
72414;BME280;60995;52.154;4.498;2023-01-01T01:28:08;100562.16;;;15.20;61.89
72414;BME280;60995;52.154;4.498;2023-01-01T01:30:24;100556.84;;;15.27;61.70
72414;BME280;60995;52.154;4.498;2023-01-01T01:32:40;100565.09;;;15.11;62.34
72414;BME280;60995;52.154;4.498;2023-01-01T01:34:56;100541.88;;;15.07;61.63
72414;BME280;60995;52.154;4.498;2023-01-01T01:37:12;100560.94;;;15.31;61.25
72414;BME280;60995;52.154;4.498;2023-01-01T01:39:28;100559.28;;;15.14;62.25
72414;BME280;60995;52.154;4.498;2023-01-01T01:41:44;100569.84;;;15.17;62.14
72414;BME280;60995;52.154;4.498;2023-01-01T01:44:01;100562.16;;;15.20;61.85
72414;BME280;60995;52.154;4.498;2023-01-01T01:48:47;100555.13;;;15.26;62.25
72414;BME280;60995;52.154;4.498;2023-01-01T01:51:05;100572.88;;;15.38;62.15
72414;BME280;60995;52.154;4.498;2023-01-01T01:53:22;100584.16;;;15.35;61.98
72414;BME280;60995;52.154;4.498;2023-01-01T01:55:43;100571.69;;;15.33;62.45
72414;BME280;60995;52.154;4.498;2023-01-01T01:58:02;100576.78;;;15.44;62.17
72414;BME280;60995;52.154;4.498;2023-01-01T02:00:20;100594.56;;;15.40;62.08
72414;BME280;60995;52.154;4.498;2023-01-01T02:02:38;100591.50;;;15.35;62.30
72414;BME280;60995;52.154;4.498;2023-01-01T02:04:58;100586.84;;;15.52;61.91
72414;BME280;60995;52.154;4.498;2023-01-01T02:07:15;100600.69;;;15.50;62.12
72414;BME280;60995;52.154;4.498;2023-01-01T02:09:33;100605.69;;;15.30;62.41
72414;BME280;60995;52.154;4.498;2023-01-01T02:11:49;100615.53;;;15.56;61.65
72414;BME280;60995;52.154;4.498;2023-01-01T02:14:05;100604.63;;;15.39;62.28
72414;BME280;60995;52.154;4.498;2023-01-01T02:21:30;100605.31;;;15.42;62.25
72414;BME280;60995;52.154;4.498;2023-01-01T02:29:24;100616.59;;;15.47;62.01
72414;BME280;60995;52.154;4.498;2023-01-01T02:31:59;100613.88;;;15.30;61.50
72414;BME280;60995;52.154;4.498;2023-01-01T02:34:22;100629.97;;;15.33;61.36
72414;BME280;60995;52.154;4.498;2023-01-01T02:36:45;100625.00;;;15.37;61.67
72414;BME280;60995;52.154;4.498;2023-01-01T02:39:06;100612.53;;;15.34;61.53
72414;BME280;60995;52.154;4.498;2023-01-01T02:41:28;100624.50;;;15.25;61.98
72414;BME280;60995;52.154;4.498;2023-01-01T02:43:48;100618.34;;;15.31;61.41
72414;BME280;60995;52.154;4.498;2023-01-01T02:46:08;100619.88;;;15.34;61.67
72414;BME280;60995;52.154;4.498;2023-01-01T02:50:56;100631.69;;;15.34;61.25
72414;BME280;60995;52.154;4.498;2023-01-01T02:53:25;100628.94;;;15.34;61.33
72414;BME280;60995;52.154;4.498;2023-01-01T02:58:08;100643.47;;;15.27;61.62
72414;BME280;60995;52.154;4.498;2023-01-01T03:00:51;100629.97;;;15.33;61.39
72414;BME280;60995;52.154;4.498;2023-01-01T03:06:02;100644.47;;;15.34;61.84
72414;BME280;60995;52.154;4.498;2023-01-01T03:11:31;100650.13;;;15.24;63.10
72414;BME280;60995;52.154;4.498;2023-01-01T03:14:02;100653.56;;;15.18;63.85
72414;BME280;60995;52.154;4.498;2023-01-01T03:16:36;100675.09;;;14.80;64.33
72414;BME280;60995;52.154;4.498;2023-01-01T03:18:57;100673.72;;;14.92;64.23
72414;BME280;60995;52.154;4.498;2023-01-01T03:21:27;100680.88;;;15.01;64.22
72414;BME280;60995;52.154;4.498;2023-01-01T03:23:47;100687.22;;;15.02;63.85
72414;BME280;60995;52.154;4.498;2023-01-01T03:26:09;100673.03;;;15.07;63.82
72414;BME280;60995;52.154;4.498;2023-01-01T03:28:29;100688.72;;;14.96;64.29
72414;BME280;60995;52.154;4.498;2023-01-01T03:30:50;100682.25;;;14.97;64.11
72414;BME280;60995;52.154;4.498;2023-01-01T03:33:13;100692.50;;;14.79;64.83
72414;BME280;60995;52.154;4.498;2023-01-01T03:35:38;100694.38;;;14.86;64.79
72414;BME280;60995;52.154;4.498;2023-01-01T03:37:58;100689.75;;;14.87;64.48
72414;BME280;60995;52.154;4.498;2023-01-01T03:40:17;100688.34;;;14.66;65.55
72414;BME280;60995;52.154;4.498;2023-01-01T03:42:37;100702.72;;;14.77;65.50
72414;BME280;60995;52.154;4.498;2023-01-01T03:45:00;100731.91;;;14.76;65.42
72414;BME280;60995;52.154;4.498;2023-01-01T03:47:18;100716.72;;;14.65;65.64
72414;BME280;60995;52.154;4.498;2023-01-01T03:49:35;100704.34;;;14.53;65.89
72414;BME280;60995;52.154;4.498;2023-01-01T03:54:34;100729.03;;;14.35;65.89
72414;BME280;60995;52.154;4.498;2023-01-01T03:56:53;100717.31;;;14.51;65.58
72414;BME280;60995;52.154;4.498;2023-01-01T03:59:29;100755.53;;;14.51;65.54
72414;BME280;60995;52.154;4.498;2023-01-01T04:01:56;100733.91;;;14.15;66.48
72414;BME280;60995;52.154;4.498;2023-01-01T04:04:13;100742.97;;;14.23;66.41
72414;BME280;60995;52.154;4.498;2023-01-01T04:06:31;100730.06;;;13.99;67.33
72414;BME280;60995;52.154;4.498;2023-01-01T04:08:48;100741.00;;;13.99;67.45
72414;BME280;60995;52.154;4.498;2023-01-01T04:11:11;100759.19;;;13.90;67.86
72414;BME280;60995;52.154;4.498;2023-01-01T04:13:51;100761.44;;;13.95;67.63
72414;BME280;60995;52.154;4.498;2023-01-01T04:16:07;100754.53;;;13.83;67.60
72414;BME280;60995;52.154;4.498;2023-01-01T04:18:23;100768.91;;;13.93;67.81
72414;BME280;60995;52.154;4.498;2023-01-01T04:20:39;100772.22;;;13.79;68.34
72414;BME280;60995;52.154;4.498;2023-01-01T04:22:56;100783.09;;;13.70;68.14
72414;BME280;60995;52.154;4.498;2023-01-01T04:25:16;100796.41;;;13.73;67.64
72414;BME280;60995;52.154;4.498;2023-01-01T04:27:32;100793.66;;;13.73;67.66
72414;BME280;60995;52.154;4.498;2023-01-01T04:29:48;100798.50;;;13.80;66.81
72414;BME280;60995;52.154;4.498;2023-01-01T04:32:04;100802.72;;;14.00;66.30
72414;BME280;60995;52.154;4.498;2023-01-01T04:34:21;100805.28;;;13.76;66.28
72414;BME280;60995;52.154;4.498;2023-01-01T04:36:37;100816.50;;;13.72;66.68
72414;BME280;60995;52.154;4.498;2023-01-01T04:38:53;100814.13;;;13.78;66.27
72414;BME280;60995;52.154;4.498;2023-01-01T04:41:09;100809.34;;;13.71;66.49
72414;BME280;60995;52.154;4.498;2023-01-01T04:43:25;100807.94;;;13.67;66.36
72414;BME280;60995;52.154;4.498;2023-01-01T04:45:41;100816.28;;;13.48;67.15
72414;BME280;60995;52.154;4.498;2023-01-01T04:48:02;100832.72;;;13.56;67.85
72414;BME280;60995;52.154;4.498;2023-01-01T04:50:19;100838.88;;;13.58;68.16
72414;BME280;60995;52.154;4.498;2023-01-01T04:52:35;100831.41;;;13.60;68.59
72414;BME280;60995;52.154;4.498;2023-01-01T04:54:51;100825.13;;;13.42;69.80
72414;BME280;60995;52.154;4.498;2023-01-01T04:57:07;100816.41;;;13.28;70.59
72414;BME280;60995;52.154;4.498;2023-01-01T04:59:23;100827.13;;;13.39;70.27
72414;BME280;60995;52.154;4.498;2023-01-01T05:01:39;100827.28;;;13.38;70.26
72414;BME280;60995;52.154;4.498;2023-01-01T05:03:56;100829.25;;;13.46;69.61
72414;BME280;60995;52.154;4.498;2023-01-01T05:06:13;100832.09;;;13.62;69.25
72414;BME280;60995;52.154;4.498;2023-01-01T05:08:30;100829.28;;;13.54;69.46
72414;BME280;60995;52.154;4.498;2023-01-01T05:10:47;100832.88;;;13.54;68.70
72414;BME280;60995;52.154;4.498;2023-01-01T05:13:05;100832.72;;;13.56;68.40
72414;BME280;60995;52.154;4.498;2023-01-01T05:15:23;100826.97;;;13.59;68.16
72414;BME280;60995;52.154;4.498;2023-01-01T05:17:39;100847.69;;;13.52;67.77
72414;BME280;60995;52.154;4.498;2023-01-01T05:19:55;100851.03;;;13.64;68.12
72414;BME280;60995;52.154;4.498;2023-01-01T05:22:11;100862.84;;;13.54;67.69
72414;BME280;60995;52.154;4.498;2023-01-01T05:24:27;100837.91;;;13.67;67.17
72414;BME280;60995;52.154;4.498;2023-01-01T05:26:43;100847.38;;;13.55;67.46
72414;BME280;60995;52.154;4.498;2023-01-01T05:29:00;100840.31;;;13.44;67.85
72414;BME280;60995;52.154;4.498;2023-01-01T05:31:17;100837.81;;;13.51;67.38
72414;BME280;60995;52.154;4.498;2023-01-01T05:33:35;100863.13;;;13.61;67.44
72414;BME280;60995;52.154;4.498;2023-01-01T05:35:52;100863.13;;;13.43;67.51
72414;BME280;60995;52.154;4.498;2023-01-01T05:38:09;100863.50;;;13.48;67.30
72414;BME280;60995;52.154;4.498;2023-01-01T05:40:25;100876.34;;;13.56;67.10
72414;BME280;60995;52.154;4.498;2023-01-01T05:42:42;100884.22;;;13.59;67.41
72414;BME280;60995;52.154;4.498;2023-01-01T05:44:58;100889.03;;;13.47;67.63
72414;BME280;60995;52.154;4.498;2023-01-01T05:47:14;100893.31;;;13.50;67.61
72414;BME280;60995;52.154;4.498;2023-01-01T05:49:33;100884.53;;;13.38;68.21
72414;BME280;60995;52.154;4.498;2023-01-01T05:51:51;100904.84;;;13.44;68.20
72414;BME280;60995;52.154;4.498;2023-01-01T05:54:08;100907.41;;;13.45;68.05
72414;BME280;60995;52.154;4.498;2023-01-01T05:56:25;100905.56;;;13.46;68.12
72414;BME280;60995;52.154;4.498;2023-01-01T05:58:42;100930.72;;;13.57;68.10
72414;BME280;60995;52.154;4.498;2023-01-01T06:03:27;100923.97;;;13.34;68.74
72414;BME280;60995;52.154;4.498;2023-01-01T06:05:43;100928.03;;;13.48;68.48
72414;BME280;60995;52.154;4.498;2023-01-01T06:07:59;100929.88;;;13.29;69.22
72414;BME280;60995;52.154;4.498;2023-01-01T06:10:15;100941.75;;;13.38;68.96
72414;BME280;60995;52.154;4.498;2023-01-01T06:12:31;100936.19;;;13.30;69.03
72414;BME280;60995;52.154;4.498;2023-01-01T06:14:47;100929.53;;;13.32;69.11
72414;BME280;60995;52.154;4.498;2023-01-01T06:17:03;100935.91;;;13.23;69.49
72414;BME280;60995;52.154;4.498;2023-01-01T06:19:20;100928.81;;;13.40;69.42
72414;BME280;60995;52.154;4.498;2023-01-01T06:21:36;100943.09;;;13.24;69.61
72414;BME280;60995;52.154;4.498;2023-01-01T06:23:56;100944.00;;;13.15;70.07
72414;BME280;60995;52.154;4.498;2023-01-01T06:26:14;100943.19;;;13.04;70.55
72414;BME280;60995;52.154;4.498;2023-01-01T06:28:34;100939.34;;;13.25;69.89
72414;BME280;60995;52.154;4.498;2023-01-01T06:30:51;100941.19;;;13.06;70.40
72414;BME280;60995;52.154;4.498;2023-01-01T06:33:07;100952.63;;;13.10;70.11
72414;BME280;60995;52.154;4.498;2023-01-01T06:35:23;100957.47;;;13.16;70.02
72414;BME280;60995;52.154;4.498;2023-01-01T06:37:39;100968.44;;;13.06;69.96
72414;BME280;60995;52.154;4.498;2023-01-01T06:39:55;100957.22;;;13.10;69.88
72414;BME280;60995;52.154;4.498;2023-01-01T06:42:11;100953.50;;;13.11;69.76
72414;BME280;60995;52.154;4.498;2023-01-01T06:44:27;100975.13;;;13.12;69.80
72414;BME280;60995;52.154;4.498;2023-01-01T06:46:43;100974.47;;;13.00;69.84
72414;BME280;60995;52.154;4.498;2023-01-01T06:49:00;100990.91;;;13.08;69.54
72414;BME280;60995;52.154;4.498;2023-01-01T06:51:20;100993.94;;;13.05;69.18
72414;BME280;60995;52.154;4.498;2023-01-01T06:53:38;101000.91;;;13.18;69.21
72414;BME280;60995;52.154;4.498;2023-01-01T06:55:54;101022.69;;;13.18;69.10
72414;BME280;60995;52.154;4.498;2023-01-01T06:58:10;101033.47;;;13.19;69.50
72414;BME280;60995;52.154;4.498;2023-01-01T07:00:26;101032.66;;;13.09;69.22
72414;BME280;60995;52.154;4.498;2023-01-01T07:02:42;101032.50;;;13.11;69.42
72414;BME280;60995;52.154;4.498;2023-01-01T07:04:58;101030.34;;;13.14;69.03
72414;BME280;60995;52.154;4.498;2023-01-01T07:07:14;101047.53;;;13.15;68.94
72414;BME280;60995;52.154;4.498;2023-01-01T07:09:30;101057.00;;;13.11;69.06
72414;BME280;60995;52.154;4.498;2023-01-01T07:11:46;101041.38;;;13.13;68.81
72414;BME280;60995;52.154;4.498;2023-01-01T07:14:02;101033.81;;;13.06;69.02
72414;BME280;60995;52.154;4.498;2023-01-01T07:16:19;101052.56;;;13.10;68.85
72414;BME280;60995;52.154;4.498;2023-01-01T07:18:35;101034.16;;;12.84;69.45
72414;BME280;60995;52.154;4.498;2023-01-01T07:20:53;101054.25;;;12.83;69.36
72414;BME280;60995;52.154;4.498;2023-01-01T07:23:11;101055.63;;;12.97;68.64
72414;BME280;60995;52.154;4.498;2023-01-01T07:25:27;101057.97;;;12.82;69.14
72414;BME280;60995;52.154;4.498;2023-01-01T07:27:43;101064.41;;;12.81;68.90
72414;BME280;60995;52.154;4.498;2023-01-01T07:29:59;101069.28;;;12.77;69.20
72414;BME280;60995;52.154;4.498;2023-01-01T07:32:15;101086.63;;;12.86;68.65
72414;BME280;60995;52.154;4.498;2023-01-01T07:34:31;101084.88;;;12.85;68.71
72414;BME280;60995;52.154;4.498;2023-01-01T07:36:47;101097.50;;;12.86;68.59
72414;BME280;60995;52.154;4.498;2023-01-01T07:39:03;101095.94;;;12.73;68.30
72414;BME280;60995;52.154;4.498;2023-01-01T07:41:19;101105.56;;;12.78;68.16
72414;BME280;60995;52.154;4.498;2023-01-01T07:43:36;101112.28;;;12.83;67.81
72414;BME280;60995;52.154;4.498;2023-01-01T07:45:52;101120.28;;;12.85;67.67
72414;BME280;60995;52.154;4.498;2023-01-01T07:48:08;101130.75;;;12.80;67.30
72414;BME280;60995;52.154;4.498;2023-01-01T07:50:30;101140.19;;;12.95;66.71
72414;BME280;60995;52.154;4.498;2023-01-01T07:52:47;101139.06;;;12.98;66.94
72414;BME280;60995;52.154;4.498;2023-01-01T07:55:03;101149.63;;;13.11;66.62
72414;BME280;60995;52.154;4.498;2023-01-01T07:57:19;101138.06;;;12.89;66.89
72414;BME280;60995;52.154;4.498;2023-01-01T07:59:36;101148.22;;;12.97;66.78
72414;BME280;60995;52.154;4.498;2023-01-01T08:01:52;101148.53;;;12.94;66.87
72414;BME280;60995;52.154;4.498;2023-01-01T08:04:08;101153.66;;;13.06;66.36
72414;BME280;60995;52.154;4.498;2023-01-01T08:06:24;101162.56;;;12.99;66.78
72414;BME280;60995;52.154;4.498;2023-01-01T08:08:40;101160.00;;;12.97;66.55
72414;BME280;60995;52.154;4.498;2023-01-01T08:11:00;101155.09;;;13.01;66.70
72414;BME280;60995;52.154;4.498;2023-01-01T08:13:16;101162.13;;;13.03;66.46
72414;BME280;60995;52.154;4.498;2023-01-01T08:15:32;101151.41;;;12.92;66.80
72414;BME280;60995;52.154;4.498;2023-01-01T08:17:49;101145.66;;;12.95;67.00
72414;BME280;60995;52.154;4.498;2023-01-01T08:20:10;101151.09;;;12.95;66.93
72414;BME280;60995;52.154;4.498;2023-01-01T08:22:26;101145.34;;;13.08;66.23
72414;BME280;60995;52.154;4.498;2023-01-01T08:24:42;101145.06;;;13.01;66.61
72414;BME280;60995;52.154;4.498;2023-01-01T08:26:58;101149.09;;;12.97;66.70
72414;BME280;60995;52.154;4.498;2023-01-01T08:29:14;101147.66;;;13.03;65.99
72414;BME280;60995;52.154;4.498;2023-01-01T08:31:31;101155.66;;;13.04;65.79
72414;BME280;60995;52.154;4.498;2023-01-01T08:33:48;101161.97;;;13.15;65.45
72414;BME280;60995;52.154;4.498;2023-01-01T08:36:04;101176.31;;;13.17;65.23
72414;BME280;60995;52.154;4.498;2023-01-01T08:38:20;101183.44;;;13.18;65.39
72414;BME280;60995;52.154;4.498;2023-01-01T08:40:37;101188.94;;;12.98;65.94
72414;BME280;60995;52.154;4.498;2023-01-01T08:42:53;101195.22;;;13.08;65.83
72414;BME280;60995;52.154;4.498;2023-01-01T08:45:09;101200.41;;;13.12;65.65
72414;BME280;60995;52.154;4.498;2023-01-01T08:47:25;101200.69;;;13.08;65.63
72414;BME280;60995;52.154;4.498;2023-01-01T08:49:42;101201.94;;;13.24;65.30
72414;BME280;60995;52.154;4.498;2023-01-01T08:51:58;101194.06;;;13.21;65.51
72414;BME280;60995;52.154;4.498;2023-01-01T08:54:14;101197.81;;;13.20;65.54
72414;BME280;60995;52.154;4.498;2023-01-01T08:56:30;101204.41;;;13.17;65.63
72414;BME280;60995;52.154;4.498;2023-01-01T08:58:46;101193.50;;;13.37;64.93
72414;BME280;60995;52.154;4.498;2023-01-01T09:01:03;101218.03;;;13.37;65.41
72414;BME280;60995;52.154;4.498;2023-01-01T09:03:20;101203.34;;;13.48;64.76
72414;BME280;60995;52.154;4.498;2023-01-01T09:05:37;101197.78;;;13.49;64.92
72414;BME280;60995;52.154;4.498;2023-01-01T09:07:53;101208.22;;;13.54;65.00
72414;BME280;60995;52.154;4.498;2023-01-01T09:10:09;101209.78;;;13.66;64.28
72414;BME280;60995;52.154;4.498;2023-01-01T09:12:25;101201.94;;;13.53;64.63
72414;BME280;60995;52.154;4.498;2023-01-01T09:14:41;101222.28;;;13.59;64.55
72414;BME280;60995;52.154;4.498;2023-01-01T09:16:57;101205.75;;;13.70;64.05
72414;BME280;60995;52.154;4.498;2023-01-01T09:19:13;101221.53;;;13.77;63.69
72414;BME280;60995;52.154;4.498;2023-01-01T09:21:29;101207.97;;;14.13;62.49
72414;BME280;60995;52.154;4.498;2023-01-01T09:23:45;101211.41;;;14.61;61.19
72414;BME280;60995;52.154;4.498;2023-01-01T09:26:02;101215.81;;;14.71;60.54
72414;BME280;60995;52.154;4.498;2023-01-01T09:28:19;101212.94;;;14.91;59.79
72414;BME280;60995;52.154;4.498;2023-01-01T09:30:35;101212.88;;;14.83;59.47
72414;BME280;60995;52.154;4.498;2023-01-01T09:32:51;101211.75;;;15.12;58.73
72414;BME280;60995;52.154;4.498;2023-01-01T09:35:09;101216.44;;;15.01;58.50
72414;BME280;60995;52.154;4.498;2023-01-01T09:37:25;101227.16;;;14.49;60.23
72414;BME280;60995;52.154;4.498;2023-01-01T09:39:41;101228.09;;;14.39;61.04
72414;BME280;60995;52.154;4.498;2023-01-01T09:42:06;101233.16;;;14.34;61.10
72414;BME280;60995;52.154;4.498;2023-01-01T09:44:51;101232.59;;;15.13;59.29
72414;BME280;60995;52.154;4.498;2023-01-01T09:47:37;101226.69;;;15.96;56.85
72414;BME280;60995;52.154;4.498;2023-01-01T09:49:59;101231.63;;;16.27;56.09
72414;BME280;60995;52.154;4.498;2023-01-01T09:52:19;101245.88;;;16.04;56.51
72414;BME280;60995;52.154;4.498;2023-01-01T09:54:36;101249.31;;;15.54;58.02
72414;BME280;60995;52.154;4.498;2023-01-01T09:56:56;101269.69;;;15.60;58.31
72414;BME280;60995;52.154;4.498;2023-01-01T09:59:15;101268.84;;;15.59;58.18
72414;BME280;60995;52.154;4.498;2023-01-01T10:06:34;101287.03;;;15.24;59.06
72414;BME280;60995;52.154;4.498;2023-01-01T10:09:08;101267.19;;;15.22;58.60
72414;BME280;60995;52.154;4.498;2023-01-01T10:11:57;101272.78;;;14.66;60.47
72414;BME280;60995;52.154;4.498;2023-01-01T10:17:00;101267.53;;;14.55;60.86
72414;BME280;60995;52.154;4.498;2023-01-01T10:19:29;101264.84;;;14.91;59.75
72414;BME280;60995;52.154;4.498;2023-01-01T10:21:51;101260.16;;;15.19;59.32
72414;BME280;60995;52.154;4.498;2023-01-01T10:24:26;101240.63;;;14.96;59.48
72414;BME280;60995;52.154;4.498;2023-01-01T10:26:50;101245.81;;;14.99;59.70
72414;BME280;60995;52.154;4.498;2023-01-01T10:29:13;101244.69;;;15.10;59.48
72414;BME280;60995;52.154;4.498;2023-01-01T10:31:37;101241.81;;;15.12;59.81
72414;BME280;60995;52.154;4.498;2023-01-01T10:33:55;101236.28;;;15.03;60.26
72414;BME280;60995;52.154;4.498;2023-01-01T10:36:13;101246.81;;;15.87;57.67
72414;BME280;60995;52.154;4.498;2023-01-01T10:38:32;101254.31;;;16.62;56.06
72414;BME280;60995;52.154;4.498;2023-01-01T10:40:52;101267.09;;;16.96;54.87
72414;BME280;60995;52.154;4.498;2023-01-01T10:43:15;101267.41;;;16.93;55.38
72414;BME280;60995;52.154;4.498;2023-01-01T10:45:32;101269.41;;;16.83;55.95
72414;BME280;60995;52.154;4.498;2023-01-01T10:50:41;101298.00;;;16.29;57.67
72414;BME280;60995;52.154;4.498;2023-01-01T10:53:07;101286.25;;;16.02;58.31
72414;BME280;60995;52.154;4.498;2023-01-01T10:55:38;101289.09;;;15.75;59.42
72414;BME280;60995;52.154;4.498;2023-01-01T10:57:54;101281.91;;;15.47;60.31
72414;BME280;60995;52.154;4.498;2023-01-01T11:00:23;101284.13;;;15.08;61.79
72414;BME280;60995;52.154;4.498;2023-01-01T11:02:43;101286.63;;;14.83;62.35
72414;BME280;60995;52.154;4.498;2023-01-01T11:05:19;101296.63;;;14.92;62.43
72414;BME280;60995;52.154;4.498;2023-01-01T11:07:36;101305.59;;;15.02;61.97
72414;BME280;60995;52.154;4.498;2023-01-01T11:09:56;101290.84;;;15.13;61.74
72414;BME280;60995;52.154;4.498;2023-01-01T11:12:16;101294.16;;;15.61;60.24
72414;BME280;60995;52.154;4.498;2023-01-01T11:16:58;101307.25;;;15.76;59.21
72414;BME280;60995;52.154;4.498;2023-01-01T11:19:19;101309.13;;;15.49;60.52
72414;BME280;60995;52.154;4.498;2023-01-01T11:21:50;101302.50;;;15.33;60.99
72414;BME280;60995;52.154;4.498;2023-01-01T11:24:15;101297.09;;;15.05;61.55
72414;BME280;60995;52.154;4.498;2023-01-01T11:26:34;101310.66;;;14.79;62.19
72414;BME280;60995;52.154;4.498;2023-01-01T11:29:04;101307.03;;;14.51;63.37
72414;BME280;60995;52.154;4.498;2023-01-01T11:31:35;101302.81;;;14.38;64.05
72414;BME280;60995;52.154;4.498;2023-01-01T11:33:54;101303.53;;;14.41;64.42
72414;BME280;60995;52.154;4.498;2023-01-01T11:36:12;101296.03;;;14.43;64.36
72414;BME280;60995;52.154;4.498;2023-01-01T11:38:40;101304.00;;;14.26;64.84
72414;BME280;60995;52.154;4.498;2023-01-01T11:41:06;101308.44;;;14.37;65.00
72414;BME280;60995;52.154;4.498;2023-01-01T11:43:23;101315.88;;;14.45;64.73
72414;BME280;60995;52.154;4.498;2023-01-01T11:45:42;101310.03;;;14.30;64.91
72414;BME280;60995;52.154;4.498;2023-01-01T11:48:02;101316.09;;;14.51;64.65
72414;BME280;60995;52.154;4.498;2023-01-01T11:50:32;101321.34;;;14.35;65.21
72414;BME280;60995;52.154;4.498;2023-01-01T11:52:51;101319.09;;;14.30;65.67
72414;BME280;60995;52.154;4.498;2023-01-01T11:55:19;101323.31;;;14.43;64.97
72414;BME280;60995;52.154;4.498;2023-01-01T11:57:44;101323.13;;;14.54;64.70
72414;BME280;60995;52.154;4.498;2023-01-01T12:00:22;101329.59;;;14.25;66.03
72414;BME280;60995;52.154;4.498;2023-01-01T12:02:43;101337.88;;;14.33;65.56
72414;BME280;60995;52.154;4.498;2023-01-01T12:05:25;101323.09;;;14.26;65.85
72414;BME280;60995;52.154;4.498;2023-01-01T12:07:56;101322.19;;;14.07;66.86
72414;BME280;60995;52.154;4.498;2023-01-01T12:10:20;101335.00;;;14.35;66.36
72414;BME280;60995;52.154;4.498;2023-01-01T12:12:40;101329.19;;;14.20;66.45
72414;BME280;60995;52.154;4.498;2023-01-01T12:20:31;101313.50;;;14.22;66.42
72414;BME280;60995;52.154;4.498;2023-01-01T12:22:56;101327.28;;;14.30;65.84
72414;BME280;60995;52.154;4.498;2023-01-01T12:25:14;101321.00;;;14.20;66.44
72414;BME280;60995;52.154;4.498;2023-01-01T12:27:56;101316.84;;;14.16;66.50
72414;BME280;60995;52.154;4.498;2023-01-01T12:30:37;101300.50;;;14.06;66.07
72414;BME280;60995;52.154;4.498;2023-01-01T12:45:43;101310.59;;;14.33;64.13
72414;BME280;60995;52.154;4.498;2023-01-01T12:58:20;101313.13;;;14.45;63.05
72414;BME280;60995;52.154;4.498;2023-01-01T13:00:46;101326.22;;;14.41;63.32
72414;BME280;60995;52.154;4.498;2023-01-01T13:03:18;101314.38;;;14.22;63.13
72414;BME280;60995;52.154;4.498;2023-01-01T13:05:44;101312.59;;;14.31;63.04
72414;BME280;60995;52.154;4.498;2023-01-01T13:08:05;101312.41;;;14.05;63.73
72414;BME280;60995;52.154;4.498;2023-01-01T13:10:26;101306.53;;;14.10;63.84
72414;BME280;60995;52.154;4.498;2023-01-01T13:12:49;101317.72;;;14.06;63.58
72414;BME280;60995;52.154;4.498;2023-01-01T13:18:01;101315.94;;;14.25;62.99
72414;BME280;60995;52.154;4.498;2023-01-01T13:20:30;101321.69;;;14.22;62.93
72414;BME280;60995;52.154;4.498;2023-01-01T13:22:50;101319.19;;;14.38;62.42